Time;durP1;ratioP1;P1;durP2;ratioP2;P2;SDS_P1;SDS_P2;PMS_P1;PMS_P2;Temp;Humidity;BMP_temperature;BMP_pressure;BME280_temperature;BME280_humidity;BME280_pressure;Samples;Min_cycle;Max_cycle;Signal;HPM_P1;HPM_P2
2021/07/04 00:00:23;;;;;;;;;15.00;12.00;;;;;;;;4975710;28;46679;-80
2021/07/04 00:02:50;;;;;;;;;12.50;11.00;;;;;;;;4994389;28;46952;-81
2021/07/04 00:05:17;;;;;;;;;13.00;11.75;;;;;;;;4980331;28;45859;-80
2021/07/04 00:07:42;;;;;;;;;14.75;12.00;;;;;;;;4974297;28;49622;-80
2021/07/04 00:10:10;;;;;;;;;10.75;10.00;;;;;;;;4995471;28;47137;-80
2021/07/04 00:12:35;;;;;;;;;19.00;12.25;;;;;;;;4989936;28;48786;-80
2021/07/04 00:15:00;;;;;;;;;12.75;9.00;;;;;;;;4988350;28;45816;-80
2021/07/04 00:17:26;;;;;;;;;9.50;9.00;;;;;;;;4977503;28;47991;-80
2021/07/04 00:19:51;;;;;;;;;8.75;8.75;;;;;;;;4972714;28;45685;-80
2021/07/04 00:22:16;;;;;;;;;10.00;9.25;;;;;;;;4986206;28;46380;-80
2021/07/04 00:24:42;;;;;;;;;11.00;9.00;;;;;;;;4971089;28;46202;-80
2021/07/04 00:27:07;;;;;;;;;13.00;11.25;;;;;;;;4974442;28;47901;-80
2021/07/04 00:29:33;;;;;;;;;9.50;9.50;;;;;;;;4972763;28;45582;-80
2021/07/04 00:31:58;;;;;;;;;13.50;9.00;;;;;;;;4972427;28;45522;-81
2021/07/04 00:34:23;;;;;;;;;13.00;12.00;;;;;;;;4970364;28;45699;-79
2021/07/04 00:36:48;;;;;;;;;11.00;9.67;;;;;;;;4979559;28;48479;-80
2021/07/04 00:39:14;;;;;;;;;13.67;9.67;;;;;;;;4982770;28;45760;-80
2021/07/04 00:41:39;;;;;;;;;9.00;8.25;;;;;;;;4978321;28;46404;-80
2021/07/04 00:44:05;;;;;;;;;9.00;8.25;;;;;;;;4980292;28;45770;-80
2021/07/04 00:46:31;;;;;;;;;13.00;11.75;;;;;;;;4974273;28;45679;-80
2021/07/04 00:48:57;;;;;;;;;11.75;9.25;;;;;;;;4976570;28;45861;-80
2021/07/04 00:51:23;;;;;;;;;12.50;10.25;;;;;;;;4980460;28;46277;-80
2021/07/04 00:53:48;;;;;;;;;10.50;10.50;;;;;;;;4979092;28;45634;-83
2021/07/04 00:56:14;;;;;;;;;13.00;9.50;;;;;;;;4976836;28;46880;-80
2021/07/04 00:58:39;;;;;;;;;14.50;11.50;;;;;;;;4972108;28;46595;-80
2021/07/04 01:01:05;;;;;;;;;13.25;10.50;;;;;;;;4982893;28;45920;-80
2021/07/04 01:03:30;;;;;;;;;9.00;9.00;;;;;;;;4978256;28;45606;-80
2021/07/04 01:05:56;;;;;;;;;11.00;8.75;;;;;;;;4975674;28;46065;-78
2021/07/04 01:08:21;;;;;;;;;10.00;9.50;;;;;;;;4978271;28;45542;-80
2021/07/04 01:10:47;;;;;;;;;12.50;10.00;;;;;;;;4971677;28;46090;-79
2021/07/04 01:13:13;;;;;;;;;10.00;8.25;;;;;;;;4979105;28;45571;-80
2021/07/04 01:15:39;;;;;;;;;11.25;8.00;;;;;;;;4988985;28;45639;-80
2021/07/04 01:18:06;;;;;;;;;10.25;8.75;;;;;;;;4969067;28;45512;-80
2021/07/04 01:20:33;;;;;;;;;11.50;10.00;;;;;;;;4971226;28;48579;-79
2021/07/04 01:23:12;;;;;;;;;14.75;9.00;;;;;;;;4984412;28;45574;-80
2021/07/04 01:25:43;;;;;;;;;8.50;7.25;;;;;;;;4986460;28;45668;-79
2021/07/04 01:28:09;;;;;;;;;10.00;8.25;;;;;;;;4973141;28;46179;-80
2021/07/04 01:30:34;;;;;;;;;8.75;8.25;;;;;;;;4966836;28;46828;-80
2021/07/04 01:32:59;;;;;;;;;9.25;9.25;;;;;;;;4968206;28;45947;-80
2021/07/04 01:35:25;;;;;;;;;9.75;8.00;;;;;;;;4976811;28;45543;-79
2021/07/04 01:37:50;;;;;;;;;10.75;8.00;;;;;;;;4972908;28;45487;-79
2021/07/04 01:40:16;;;;;;;;;8.50;7.00;;;;;;;;4979006;28;45534;-80
2021/07/04 01:42:43;;;;;;;;;8.00;6.25;;;;;;;;4965188;28;46171;-80
2021/07/04 01:45:09;;;;;;;;;6.00;6.00;;;;;;;;4983078;28;45494;-80
2021/07/04 01:47:37;;;;;;;;;10.00;8.50;;;;;;;;4990080;28;45496;-79
2021/07/04 01:50:03;;;;;;;;;9.75;8.00;;;;;;;;4969011;28;45614;-80
2021/07/04 01:52:28;;;;;;;;;9.75;7.50;;;;;;;;4974178;28;45518;-80
2021/07/04 01:54:54;;;;;;;;;8.00;8.00;;;;;;;;4975503;28;45757;-79
2021/07/04 01:57:19;;;;;;;;;8.00;8.00;;;;;;;;4969062;28;45757;-80
2021/07/04 01:59:45;;;;;;;;;10.00;6.50;;;;;;;;4970131;28;45515;-80
2021/07/04 02:02:11;;;;;;;;;7.75;7.75;;;;;;;;4991551;28;45710;-80
2021/07/04 02:04:37;;;;;;;;;9.00;7.25;;;;;;;;4966693;28;45753;-80
2021/07/04 02:07:04;;;;;;;;;8.00;8.00;;;;;;;;4975316;28;47196;-80
2021/07/04 02:09:29;;;;;;;;;9.00;8.00;;;;;;;;4968190;28;45731;-80
2021/07/04 02:11:55;;;;;;;;;8.33;7.00;;;;;;;;4967118;28;45679;-81
2021/07/04 02:14:20;;;;;;;;;6.00;6.00;;;;;;;;4977059;28;48106;-79
2021/07/04 02:16:45;;;;;;;;;11.00;8.75;;;;;;;;4967874;28;46072;-80
2021/07/04 02:19:10;;;;;;;;;7.00;7.00;;;;;;;;4976126;28;45478;-81
2021/07/04 02:21:36;;;;;;;;;7.25;7.00;;;;;;;;4975273;28;45407;-79
2021/07/04 02:24:01;;;;;;;;;8.50;7.25;;;;;;;;4985995;28;45602;-81
2021/07/04 02:26:26;;;;;;;;;6.25;6.25;;;;;;;;4977433;28;45546;-80
2021/07/04 02:28:52;;;;;;;;;8.00;7.50;;;;;;;;4969302;28;46233;-80
2021/07/04 02:31:17;;;;;;;;;8.00;7.50;;;;;;;;4977156;28;45628;-80
2021/07/04 02:33:42;;;;;;;;;8.67;8.00;;;;;;;;4974025;28;45521;-80
2021/07/04 02:36:07;;;;;;;;;9.50;6.00;;;;;;;;4974487;28;45569;-80
2021/07/04 02:38:33;;;;;;;;;7.67;7.00;;;;;;;;4988544;28;46596;-80
2021/07/04 02:40:58;;;;;;;;;7.00;7.00;;;;;;;;4969247;28;45438;-80
2021/07/04 02:43:24;;;;;;;;;5.00;5.00;;;;;;;;4988918;28;45535;-80
2021/07/04 02:45:50;;;;;;;;;7.50;6.00;;;;;;;;4985995;28;45571;-80
2021/07/04 02:48:15;;;;;;;;;6.50;6.50;;;;;;;;4970893;28;46611;-80
2021/07/04 02:50:42;;;;;;;;;8.00;7.00;;;;;;;;4979596;28;46309;-80
2021/07/04 02:53:09;;;;;;;;;5.00;5.00;;;;;;;;4974089;28;46307;-80
2021/07/04 02:55:35;;;;;;;;;5.75;5.75;;;;;;;;4968784;28;45447;-80
2021/07/04 02:58:03;;;;;;;;;6.75;5.00;;;;;;;;4975797;28;47319;-80
2021/07/04 03:00:28;;;;;;;;;4.25;4.25;;;;;;;;4972592;28;45560;-80
2021/07/04 03:02:54;;;;;;;;;6.75;5.00;;;;;;;;4976358;28;45404;-79
2021/07/04 03:05:19;;;;;;;;;9.00;6.00;;;;;;;;4979985;28;45568;-80
2021/07/04 03:07:45;;;;;;;;;10.25;8.00;;;;;;;;4964214;28;46091;-80
2021/07/04 03:10:12;;;;;;;;;7.00;7.00;;;;;;;;4973213;28;45748;-80
2021/07/04 03:12:37;;;;;;;;;9.25;7.00;;;;;;;;4970586;28;45434;-80
2021/07/04 03:15:03;;;;;;;;;8.50;7.00;;;;;;;;4978785;28;45593;-79
2021/07/04 03:17:28;;;;;;;;;7.75;6.75;;;;;;;;4976784;28;45558;-80
2021/07/04 03:19:54;;;;;;;;;9.33;6.00;;;;;;;;4974364;28;45293;-79
2021/07/04 03:22:19;;;;;;;;;5.75;5.75;;;;;;;;4973882;28;45409;-80
2021/07/04 03:24:44;;;;;;;;;7.00;6.75;;;;;;;;4968183;28;45585;-79
2021/07/04 03:27:10;;;;;;;;;7.75;6.75;;;;;;;;4969975;28;46271;-80
2021/07/04 03:29:36;;;;;;;;;7.50;7.00;;;;;;;;4976097;28;45562;-80
2021/07/04 03:32:02;;;;;;;;;8.00;5.00;;;;;;;;4971787;28;45587;-80
2021/07/04 03:34:27;;;;;;;;;6.25;6.25;;;;;;;;4971402;28;48945;-82
2021/07/04 03:36:52;;;;;;;;;6.00;6.00;;;;;;;;4980238;28;45975;-79
2021/07/04 03:39:18;;;;;;;;;6.75;6.75;;;;;;;;4970560;28;45353;-80
2021/07/04 03:41:43;;;;;;;;;5.00;4.25;;;;;;;;4971715;28;45476;-79
2021/07/04 03:44:08;;;;;;;;;10.50;7.00;;;;;;;;4972901;28;46029;-80
2021/07/04 03:46:33;;;;;;;;;5.50;5.50;;;;;;;;4971077;28;45494;-80
2021/07/04 03:48:59;;;;;;;;;6.00;6.00;;;;;;;;4976055;28;45664;-80
2021/07/04 03:51:24;;;;;;;;;6.00;6.00;;;;;;;;4970408;28;48447;-79
2021/07/04 03:53:49;;;;;;;;;7.00;6.00;;;;;;;;4984642;28;47149;-79
2021/07/04 03:56:15;;;;;;;;;9.00;7.75;;;;;;;;4967267;28;47670;-79
2021/07/04 03:58:40;;;;;;;;;6.67;5.00;;;;;;;;4965737;28;45877;-80
2021/07/04 04:01:05;;;;;;;;;8.00;7.00;;;;;;;;4971667;28;45490;-79
2021/07/04 04:03:31;;;;;;;;;7.75;6.00;;;;;;;;4992990;28;45533;-80
2021/07/04 04:05:56;;;;;;;;;10.00;6.75;;;;;;;;4969695;28;46254;-80
2021/07/04 04:08:27;;;;;;;;;9.25;6.50;;;;;;;;4974945;28;45614;-80
2021/07/04 04:10:53;;;;;;;;;7.50;6.00;;;;;;;;4969399;28;45606;-79
2021/07/04 04:13:19;;;;;;;;;8.25;7.00;;;;;;;;4976211;28;48741;-79
2021/07/04 04:15:44;;;;;;;;;7.00;7.00;;;;;;;;4971581;28;46652;-79
2021/07/04 04:18:09;;;;;;;;;6.00;4.25;;;;;;;;4973011;28;45539;-79
2021/07/04 04:20:35;;;;;;;;;6.00;5.00;;;;;;;;4975040;28;51530;-79
2021/07/04 04:23:04;;;;;;;;;5.75;5.00;;;;;;;;4972021;28;45618;-79
2021/07/04 04:25:29;;;;;;;;;5.00;4.50;;;;;;;;4979900;28;45475;-80
2021/07/04 04:27:54;;;;;;;;;8.00;3.33;;;;;;;;4987173;28;45522;-79
2021/07/04 04:30:19;;;;;;;;;7.00;4.00;;;;;;;;4970353;28;45882;-80
2021/07/04 04:32:45;;;;;;;;;5.00;3.00;;;;;;;;4975961;28;45479;-79
2021/07/04 04:35:10;;;;;;;;;4.25;4.00;;;;;;;;4968183;28;51575;-79
2021/07/04 04:37:36;;;;;;;;;4.00;4.00;;;;;;;;4963157;28;45405;-79
2021/07/04 04:40:02;;;;;;;;;3.75;3.75;;;;;;;;4972716;28;45519;-79
2021/07/04 04:42:27;;;;;;;;;3.25;3.25;;;;;;;;4969588;28;45521;-79
2021/07/04 04:44:52;;;;;;;;;3.00;3.00;;;;;;;;4973039;28;45914;-79
2021/07/04 04:47:17;;;;;;;;;6.25;4.00;;;;;;;;4973872;28;48252;-79
2021/07/04 04:49:43;;;;;;;;;4.00;3.00;;;;;;;;4976780;28;45512;-79
2021/07/04 04:52:08;;;;;;;;;3.00;3.00;;;;;;;;4971880;28;45513;-79
2021/07/04 04:54:33;;;;;;;;;6.00;3.67;;;;;;;;4966101;28;46174;-79
2021/07/04 04:57:09;;;;;;;;;6.25;4.75;;;;;;;;4972559;28;45600;-78
2021/07/04 04:59:35;;;;;;;;;3.50;3.50;;;;;;;;4981125;28;45608;-79
2021/07/04 05:02:01;;;;;;;;;5.50;2.75;;;;;;;;4969140;28;52229;-79
2021/07/04 05:04:27;;;;;;;;;6.00;3.50;;;;;;;;4978395;28;46010;-79
2021/07/04 05:06:55;;;;;;;;;4.00;4.00;;;;;;;;4974336;28;45712;-79
2021/07/04 05:09:20;;;;;;;;;4.50;4.00;;;;;;;;4972699;28;45608;-79
2021/07/04 05:11:48;;;;;;;;;4.25;4.25;;;;;;;;4975924;28;45668;-78
2021/07/04 05:14:13;;;;;;;;;4.50;4.00;;;;;;;;4972075;28;45464;-79
2021/07/04 05:16:39;;;;;;;;;3.00;3.00;;;;;;;;4968134;28;49040;-79
2021/07/04 05:19:07;;;;;;;;;5.00;4.00;;;;;;;;4972880;28;45485;-79
2021/07/04 05:21:35;;;;;;;;;5.00;5.00;;;;;;;;4970486;28;59328;-79
2021/07/04 05:24:01;;;;;;;;;9.25;4.50;;;;;;;;4974584;28;46510;-80
2021/07/04 05:26:27;;;;;;;;;6.75;4.75;;;;;;;;4973488;28;45547;-79
2021/07/04 05:28:52;;;;;;;;;5.00;3.50;;;;;;;;4974167;28;49834;-79
2021/07/04 05:31:17;;;;;;;;;5.00;4.00;;;;;;;;4971942;28;45617;-79
2021/07/04 05:33:42;;;;;;;;;6.00;4.00;;;;;;;;4973304;28;45537;-79
2021/07/04 05:36:08;;;;;;;;;3.67;3.00;;;;;;;;4969114;28;45648;-79
2021/07/04 05:38:35;;;;;;;;;3.50;3.00;;;;;;;;4972996;28;45611;-79
2021/07/04 05:41:00;;;;;;;;;4.00;2.25;;;;;;;;4968923;28;45782;-79
2021/07/04 05:43:26;;;;;;;;;6.25;4.00;;;;;;;;4969888;28;45854;-79
2021/07/04 05:45:51;;;;;;;;;5.75;5.75;;;;;;;;4986158;28;45626;-80
2021/07/04 05:48:16;;;;;;;;;4.25;4.25;;;;;;;;4972882;28;45850;-79
2021/07/04 05:50:42;;;;;;;;;5.75;4.00;;;;;;;;4973289;28;46918;-79
2021/07/04 05:53:07;;;;;;;;;8.33;5.00;;;;;;;;4977484;28;45586;-79
2021/07/04 05:55:32;;;;;;;;;5.00;5.00;;;;;;;;4973883;28;45545;-79
2021/07/04 05:57:57;;;;;;;;;8.50;4.00;;;;;;;;4983513;28;45315;-79
2021/07/04 06:00:23;;;;;;;;;7.00;5.00;;;;;;;;4973392;28;45513;-79
2021/07/04 06:02:48;;;;;;;;;5.75;4.75;;;;;;;;4974042;28;53017;-79
2021/07/04 06:05:16;;;;;;;;;4.75;4.75;;;;;;;;4970382;28;45540;-80
2021/07/04 06:07:42;;;;;;;;;5.00;5.00;;;;;;;;4975137;28;45506;-79
2021/07/04 06:10:07;;;;;;;;;6.25;5.00;;;;;;;;4984230;28;45525;-79
2021/07/04 06:12:32;;;;;;;;;5.00;4.25;;;;;;;;4969675;28;45459;-79
2021/07/04 06:14:57;;;;;;;;;8.00;5.00;;;;;;;;4968638;28;45429;-79
2021/07/04 06:17:23;;;;;;;;;5.00;5.00;;;;;;;;4983611;28;45457;-79
2021/07/04 06:19:48;;;;;;;;;7.50;5.00;;;;;;;;4992248;28;54392;-79
2021/07/04 06:22:13;;;;;;;;;7.25;5.00;;;;;;;;4974254;28;45623;-79
2021/07/04 06:24:39;;;;;;;;;6.00;5.00;;;;;;;;4972104;28;46599;-81
2021/07/04 06:27:04;;;;;;;;;4.50;4.50;;;;;;;;4985831;28;45621;-80
2021/07/04 06:29:30;;;;;;;;;4.00;4.00;;;;;;;;4976321;28;45704;-81
2021/07/04 06:31:55;;;;;;;;;7.00;4.00;;;;;;;;4982782;28;46009;-80
2021/07/04 06:34:20;;;;;;;;;4.75;4.00;;;;;;;;4984163;28;45514;-80
2021/07/04 06:36:45;;;;;;;;;6.00;5.00;;;;;;;;4983152;28;45674;-81
2021/07/04 06:39:11;;;;;;;;;5.67;5.33;;;;;;;;4993981;28;45736;-81
2021/07/04 06:41:36;;;;;;;;;5.25;5.00;;;;;;;;4983404;28;47120;-81
2021/07/04 06:53:28;;;;;;;;;5.50;4.75;;;;;;;;5021904;28;45912;-82
2021/07/04 07:18:33;;;;;;;;;4.50;3.75;;;;;;;;4118535;26;45758;-79
2021/07/04 07:20:58;;;;;;;;;4.00;4.00;;;;;;;;5017165;28;46060;-79
2021/07/04 07:23:28;;;;;;;;;3.50;3.25;;;;;;;;5040079;27;45629;-79
2021/07/04 07:25:55;;;;;;;;;3.50;2.75;;;;;;;;5025860;28;45994;-77
2021/07/04 07:28:20;;;;;;;;;4.25;4.00;;;;;;;;5031271;28;46020;-80
2021/07/04 07:30:46;;;;;;;;;3.00;3.00;;;;;;;;5031687;28;45596;-79
2021/07/04 07:33:23;;;;;;;;;3.25;3.25;;;;;;;;5014490;28;45646;-79
2021/07/04 07:35:51;;;;;;;;;4.25;3.50;;;;;;;;5037057;28;45678;-79
2021/07/04 07:38:17;;;;;;;;;5.75;3.50;;;;;;;;5028316;28;47498;-79
2021/07/04 07:40:42;;;;;;;;;6.25;3.25;;;;;;;;5024585;28;46119;-80
2021/07/04 07:43:07;;;;;;;;;2.75;2.75;;;;;;;;5043307;28;45558;-79
2021/07/04 07:45:32;;;;;;;;;6.00;3.00;;;;;;;;5025299;28;45493;-79
2021/07/04 07:47:58;;;;;;;;;1.75;1.75;;;;;;;;5025538;28;45609;-80
2021/07/04 07:50:23;;;;;;;;;5.50;4.00;;;;;;;;5027102;28;45820;-80
2021/07/04 07:52:48;;;;;;;;;5.25;4.00;;;;;;;;5032805;28;45624;-78
2021/07/04 07:55:14;;;;;;;;;3.50;2.50;;;;;;;;5032794;28;46415;-78
2021/07/04 07:57:40;;;;;;;;;3.50;3.00;;;;;;;;5027588;28;49585;-79
2021/07/04 08:00:07;;;;;;;;;3.00;3.00;;;;;;;;5031365;28;45877;-81
2021/07/04 08:02:32;;;;;;;;;6.00;5.00;;;;;;;;5025726;28;45541;-80
2021/07/04 08:04:58;;;;;;;;;4.00;4.00;;;;;;;;5030779;28;50685;-81
2021/07/04 08:07:23;;;;;;;;;5.75;4.25;;;;;;;;5031055;28;45936;-81
2021/07/04 08:09:48;;;;;;;;;3.50;3.50;;;;;;;;5034171;28;45458;-81
2021/07/04 08:12:23;;;;;;;;;5.00;3.33;;;;;;;;5025496;28;45529;-80
2021/07/04 08:14:49;;;;;;;;;4.00;4.00;;;;;;;;5039721;28;46221;-80
2021/07/04 08:17:14;;;;;;;;;5.00;3.50;;;;;;;;5016946;28;46631;-80
2021/07/04 08:33:50;;;;;;;;;2.25;2.25;;;;;;;;5019477;28;45724;-80
2021/07/04 08:36:25;;;;;;;;;5.00;3.00;;;;;;;;5000064;28;47395;-82
2021/07/04 08:44:56;;;;;;;;;3.00;3.00;;;;;;;;5526241;22;45865;-81
2021/07/04 08:47:23;;;;;;;;;3.00;3.00;;;;;;;;4992406;28;48129;-81
2021/07/04 08:49:49;;;;;;;;;4.25;2.75;;;;;;;;4974613;28;50246;-80
2021/07/04 08:54:49;;;;;;;;;3.00;3.00;;;;;;;;5797478;22;47022;-79
2021/07/04 08:57:17;;;;;;;;;4.75;1.50;;;;;;;;5020117;28;46148;-79
2021/07/04 08:59:52;;;;;;;;;2.50;2.00;;;;;;;;4999455;28;46436;-79
2021/07/04 09:07:28;;;;;;;;;1.00;1.00;;;;;;;;5636747;22;45881;-79
2021/07/04 09:09:55;;;;;;;;;2.25;1.00;;;;;;;;5008437;28;46168;-79
2021/07/04 09:12:20;;;;;;;;;1.00;1.00;;;;;;;;5027395;28;45575;-79
2021/07/04 09:14:47;;;;;;;;;2.50;1.00;;;;;;;;5020186;28;45565;-79
2021/07/04 09:19:56;;;;;;;;;0.00;0.00;;;;;;;;5039097;28;45461;-82
2021/07/04 09:22:43;;;;;;;;;2.00;0.00;;;;;;;;5044133;28;45497;-80
2021/07/04 09:25:24;;;;;;;;;0.25;0.25;;;;;;;;5035854;28;45643;-80
2021/07/04 09:28:06;;;;;;;;;0.00;0.00;;;;;;;;5050164;28;45442;-80
2021/07/04 09:43:27;;;;;;;;;1.75;0.75;;;;;;;;5056011;22;46058;-79
2021/07/04 09:45:54;;;;;;;;;1.00;0.75;;;;;;;;4996698;28;45975;-79
2021/07/04 09:48:21;;;;;;;;;2.50;1.50;;;;;;;;5019133;28;45518;-78
2021/07/04 10:12:58;;;;;;;;;1.00;0.75;;;;;;;;5011480;28;45494;-81
2021/07/04 10:15:23;;;;;;;;;2.75;1.00;;;;;;;;5026313;28;45534;-80
2021/07/04 10:17:52;;;;;;;;;3.00;1.50;;;;;;;;5023423;28;45731;-82
2021/07/04 10:24:00;;;;;;;;;;;;;;;;;;;;;
2021/07/04 10:29:38;;;;;;;;;2.00;2.00;;;;;;;;4856651;29;46892;-81
2021/07/04 10:32:04;;;;;;;;;2.00;2.00;;;;;;;;4847218;29;45573;-82
2021/07/04 10:53:52;;;;;;;;;3.00;3.00;;;;;;;;4723112;30;45529;-84
2021/07/04 11:14:26;;;;;;;;;1.00;1.00;;;;;;;;5619225;22;45470;-95
2021/07/04 11:27:20;;;;;;;;;1.00;1.00;;;;;;;;5186041;22;46149;-84
2021/07/04 11:30:04;;;;;;;;;2.25;2.00;;;;;;;;4999089;28;48747;-79
2021/07/04 11:38:40;;;;;;;;;3.75;3.25;;;;;;;;4940462;28;45702;-85
2021/07/04 11:41:07;;;;;;;;;6.75;5.50;;;;;;;;5019304;22;46029;-85
2021/07/04 11:43:33;;;;;;;;;13.00;10.25;;;;;;;;5000551;28;46689;-84
2021/07/04 11:46:02;;;;;;;;;13.00;9.75;;;;;;;;5005112;28;45665;-85
2021/07/04 11:58:03;;;;;;;;;3.50;3.50;;;;;;;;4932818;28;46133;-82
2021/07/04 12:03:46;;;;;;;;;1.00;1.00;;;;;;;;4827787;29;46048;-82
2021/07/04 12:06:11;;;;;;;;;1.50;1.50;;;;;;;;4833501;29;45532;-83
2021/07/04 12:08:50;;;;;;;;;2.75;1.00;;;;;;;;4815877;29;46872;-86
2021/07/04 12:11:15;;;;;;;;;0.75;0.75;;;;;;;;4807081;29;45773;-81
2021/07/04 12:13:40;;;;;;;;;3.00;2.00;;;;;;;;4814465;29;46512;-85
2021/07/04 13:27:45;;;;;;;;;1.00;1.00;;;;;;;;5003835;28;45507;-93
2021/07/04 13:30:22;;;;;;;;;1.00;1.00;;;;;;;;5224374;22;45166;-92
2021/07/04 13:33:15;;;;;;;;;1.00;1.00;;;;;;;;4969932;28;44872;-94
2021/07/04 13:38:16;;;;;;;;;2.00;1.00;;;;;;;;5197480;22;46096;-94
2021/07/04 13:41:02;;;;;;;;;1.00;1.00;;;;;;;;5074740;28;44879;-92
2021/07/04 13:43:47;;;;;;;;;2.00;2.00;;;;;;;;5055430;28;45362;-93
2021/07/04 13:46:42;;;;;;;;;1.00;1.00;;;;;;;;5052159;27;45264;-95
2021/07/04 13:49:07;;;;;;;;;1.00;1.00;;;;;;;;5067891;28;48252;-95
2021/07/04 13:59:33;;;;;;;;;1.00;1.00;;;;;;;;5006471;28;45836;-82
2021/07/04 14:01:59;;;;;;;;;2.00;2.00;;;;;;;;5027845;28;45919;-84
2021/07/04 14:04:25;;;;;;;;;2.00;2.00;;;;;;;;5019547;28;45983;-84
2021/07/04 14:09:36;;;;;;;;;1.00;1.00;;;;;;;;5009771;28;46404;-86
2021/07/04 14:12:03;;;;;;;;;1.50;1.50;;;;;;;;5018302;28;45417;-83
2021/07/04 14:14:28;;;;;;;;;2.25;1.75;;;;;;;;5009725;28;45549;-82
2021/07/04 14:16:53;;;;;;;;;1.00;1.00;;;;;;;;5026913;28;45736;-80
2021/07/04 14:19:19;;;;;;;;;2.00;2.00;;;;;;;;5036737;28;47273;-80
2021/07/04 14:21:48;;;;;;;;;3.00;1.25;;;;;;;;5029343;28;45537;-82
2021/07/04 14:24:20;;;;;;;;;2.75;2.00;;;;;;;;5026369;28;45502;-81
2021/07/04 14:42:16;;;;;;;;;1.75;1.00;;;;;;;;5142592;22;45519;-81
2021/07/04 14:50:48;;;;;;;;;1.00;1.00;;;;;;;;5013013;22;45616;-94
2021/07/04 15:42:22;;;;;;;;;1.25;1.00;;;;;;;;5424388;22;45186;-95
2021/07/04 15:44:54;;;;;;;;;1.00;1.00;;;;;;;;5038672;28;45491;-95
2021/07/04 15:57:45;;;;;;;;;2.75;0.75;;;;;;;;5270982;22;45529;-81
2021/07/04 16:00:12;;;;;;;;;3.00;2.00;;;;;;;;5011222;28;46328;-82
2021/07/04 16:05:45;;;;;;;;;2.00;2.00;;;;;;;;4984950;28;47603;-81
2021/07/04 16:11:29;;;;;;;;;3.75;1.00;;;;;;;;4949581;28;45591;-81
2021/07/04 16:13:58;;;;;;;;;1.00;1.00;;;;;;;;4986058;28;46300;-84
2021/07/04 16:16:42;;;;;;;;;1.00;1.00;;;;;;;;4975415;28;45559;-82
2021/07/04 16:19:07;;;;;;;;;3.50;2.00;;;;;;;;4983143;28;45642;-83
2021/07/04 16:21:33;;;;;;;;;2.00;1.25;;;;;;;;4987267;28;45623;-81
2021/07/04 16:26:33;;;;;;;;;3.00;1.00;;;;;;;;5005755;26;45376;-95
2021/07/04 16:28:58;;;;;;;;;1.00;1.00;;;;;;;;4999761;28;45277;-96
2021/07/04 16:31:24;;;;;;;;;2.25;1.75;;;;;;;;5196735;22;45475;-95
2021/07/04 16:33:55;;;;;;;;;0.25;0.25;;;;;;;;5062609;28;47340;-96
2021/07/04 16:36:20;;;;;;;;;2.25;2.25;;;;;;;;5062802;28;45492;-96
2021/07/04 16:38:46;;;;;;;;;2.00;1.00;;;;;;;;5081057;28;45472;-95
2021/07/04 16:41:11;;;;;;;;;1.75;1.75;;;;;;;;5063612;28;45464;-93
2021/07/04 16:43:46;;;;;;;;;1.25;1.25;;;;;;;;5062889;28;46908;-96
2021/07/04 16:46:14;;;;;;;;;1.00;1.00;;;;;;;;5061608;28;45443;-96
2021/07/04 16:51:53;;;;;;;;;0.00;0.00;;;;;;;;5427284;22;45791;-83
2021/07/04 16:57:57;;;;;;;;;0.75;0.75;;;;;;;;5008844;28;45438;-82
2021/07/04 17:13:18;;;;;;;;;1.00;1.00;;;;;;;;5073432;22;46406;-96
2021/07/04 17:15:43;;;;;;;;;1.00;1.00;;;;;;;;5028607;28;46319;-88
2021/07/04 17:24:04;;;;;;;;;0.75;0.75;;;;;;;;5024559;28;49059;-82
2021/07/04 17:26:36;;;;;;;;;3.75;1.00;;;;;;;;5016338;28;46302;-82
2021/07/04 17:31:36;;;;;;;;;0.75;0.75;;;;;;;;5011275;22;45563;-94
2021/07/04 17:34:02;;;;;;;;;2.00;0.00;;;;;;;;4997047;28;45524;-94
2021/07/04 17:36:27;;;;;;;;;0.00;0.00;;;;;;;;5000185;22;48422;-79
2021/07/04 17:38:53;;;;;;;;;1.00;0.25;;;;;;;;4963257;28;45602;-80
2021/07/04 17:41:20;;;;;;;;;0.75;0.75;;;;;;;;4964483;28;45412;-81
2021/07/04 17:43:46;;;;;;;;;0.75;0.00;;;;;;;;4969229;28;45924;-80
2021/07/04 17:46:12;;;;;;;;;0.75;0.75;;;;;;;;4978567;28;46767;-81
2021/07/04 17:48:37;;;;;;;;;0.50;0.50;;;;;;;;4982310;28;45521;-87
2021/07/04 17:51:02;;;;;;;;;1.00;0.75;;;;;;;;4961334;28;45481;-85
2021/07/04 17:53:28;;;;;;;;;2.00;0.00;;;;;;;;4983051;28;45408;-85
2021/07/04 17:55:54;;;;;;;;;1.75;0.50;;;;;;;;4967476;28;47054;-83
2021/07/04 17:58:19;;;;;;;;;1.50;1.00;;;;;;;;4974298;28;45700;-86
2021/07/04 18:00:45;;;;;;;;;2.00;2.00;;;;;;;;4979018;28;50736;-87
2021/07/04 18:03:44;;;;;;;;;0.50;0.50;;;;;;;;4978608;28;44927;-87
2021/07/04 18:06:09;;;;;;;;;1.50;1.50;;;;;;;;4973232;28;47013;-86
2021/07/04 18:08:38;;;;;;;;;2.75;2.00;;;;;;;;4983603;28;46329;-88
2021/07/04 18:11:13;;;;;;;;;5.75;5.00;;;;;;;;4979779;28;45674;-88
2021/07/04 18:13:38;;;;;;;;;3.75;2.25;;;;;;;;4962920;28;46636;-86
2021/07/04 18:16:06;;;;;;;;;2.25;2.25;;;;;;;;5010133;22;46809;-94
2021/07/04 18:21:07;;;;;;;;;1.50;1.50;;;;;;;;5678486;22;46364;-84
2021/07/04 18:23:35;;;;;;;;;1.50;1.50;;;;;;;;4998707;28;45613;-86
2021/07/04 18:26:01;;;;;;;;;3.00;2.00;;;;;;;;4980539;28;46684;-85
2021/07/04 18:28:27;;;;;;;;;2.00;1.00;;;;;;;;5036566;22;46251;-93
2021/07/04 18:30:53;;;;;;;;;2.25;2.25;;;;;;;;5000052;28;45566;-94
2021/07/04 18:35:53;;;;;;;;;4.00;3.00;;;;;;;;5173946;22;45424;-94
2021/07/04 18:38:19;;;;;;;;;2.50;2.50;;;;;;;;5058111;22;45498;-83
2021/07/04 18:40:45;;;;;;;;;3.75;3.75;;;;;;;;5013209;28;45610;-84
2021/07/04 18:43:10;;;;;;;;;5.00;5.00;;;;;;;;5005246;28;46031;-83
2021/07/04 18:45:36;;;;;;;;;4.00;4.00;;;;;;;;5020515;28;46254;-86
2021/07/04 18:50:36;;;;;;;;;5.00;5.00;;;;;;;;5292154;22;45824;-94
2021/07/04 18:53:02;;;;;;;;;4.00;4.00;;;;;;;;4998158;28;45563;-94
2021/07/04 18:55:27;;;;;;;;;5.00;5.00;;;;;;;;5347388;22;48268;-82
2021/07/04 18:57:53;;;;;;;;;4.00;4.00;;;;;;;;4963294;28;46112;-85
2021/07/04 19:00:20;;;;;;;;;6.50;5.00;;;;;;;;4979694;28;45637;-84
2021/07/04 19:02:45;;;;;;;;;7.50;6.00;;;;;;;;4977936;28;45572;-84
2021/07/04 19:05:12;;;;;;;;;4.75;4.75;;;;;;;;4980549;28;45621;-84
2021/07/04 19:07:49;;;;;;;;;4.50;4.50;;;;;;;;4964058;28;45677;-84
2021/07/04 19:10:19;;;;;;;;;7.25;5.00;;;;;;;;5029779;22;45701;-96
2021/07/04 19:12:46;;;;;;;;;8.00;8.00;;;;;;;;5022099;28;45400;-96
2021/07/04 19:15:15;;;;;;;;;6.00;6.00;;;;;;;;5003953;28;47255;-96
2021/07/04 19:22:58;;;;;;;;;7.25;5.25;;;;;;;;5155160;22;46308;-86
2021/07/04 19:38:46;;;;;;;;;7.00;7.00;;;;;;;;5296195;22;44974;-85
2021/07/04 19:41:11;;;;;;;;;6.25;6.00;;;;;;;;4978752;28;45495;-86
2021/07/04 19:43:39;;;;;;;;;5.25;5.25;;;;;;;;5001295;28;45644;-86
2021/07/04 19:46:05;;;;;;;;;8.00;6.00;;;;;;;;5024961;22;46356;-95
2021/07/04 19:51:06;;;;;;;;;6.25;6.25;;;;;;;;5311090;22;47004;-86
2021/07/04 19:53:31;;;;;;;;;6.25;5.25;;;;;;;;5049103;28;45552;-87
2021/07/04 19:58:31;;;;;;;;;7.75;6.25;;;;;;;;5211204;22;45789;-87
2021/07/04 20:00:57;;;;;;;;;10.50;8.00;;;;;;;;4999032;28;47677;-85
2021/07/04 20:11:27;;;;;;;;;8.75;7.00;;;;;;;;2462029;22;46500;-90
2021/07/04 20:13:52;;;;;;;;;8.00;6.50;;;;;;;;5062280;27;45457;-90
2021/07/04 20:16:17;;;;;;;;;6.67;6.00;;;;;;;;5069030;27;46003;-90
2021/07/04 20:18:44;;;;;;;;;6.33;6.33;;;;;;;;5071366;28;45860;-90
2021/07/04 20:21:09;;;;;;;;;7.00;7.00;;;;;;;;5070450;27;45475;-91
2021/07/04 20:23:35;;;;;;;;;8.00;7.00;;;;;;;;5069380;27;45917;-91
2021/07/04 20:26:00;;;;;;;;;5.25;5.25;;;;;;;;5069275;27;47574;-90
2021/07/04 20:28:25;;;;;;;;;8.00;8.00;;;;;;;;5076539;27;45482;-90
2021/07/04 20:30:52;;;;;;;;;7.00;7.00;;;;;;;;5073862;27;45452;-91
2021/07/04 20:33:18;;;;;;;;;8.75;8.75;;;;;;;;5074375;27;46067;-90
2021/07/04 20:35:44;;;;;;;;;7.00;7.00;;;;;;;;5066274;28;45567;-91
2021/07/04 20:38:09;;;;;;;;;9.75;6.25;;;;;;;;5067799;28;45423;-92
2021/07/04 20:45:44;;;;;;;;;9.75;7.25;;;;;;;;5116579;22;45729;-82
2021/07/04 20:48:10;;;;;;;;;7.25;6.00;;;;;;;;5016422;28;45879;-79
2021/07/04 20:50:35;;;;;;;;;7.00;7.00;;;;;;;;5012110;28;45435;-79
2021/07/04 20:53:00;;;;;;;;;7.00;7.00;;;;;;;;4996162;28;45518;-79
2021/07/04 20:55:25;;;;;;;;;8.50;7.25;;;;;;;;5014840;28;46645;-80
2021/07/04 20:57:51;;;;;;;;;6.75;6.75;;;;;;;;5007953;28;45514;-78
2021/07/04 21:00:18;;;;;;;;;8.50;7.50;;;;;;;;5006830;28;48163;-79
2021/07/04 21:02:43;;;;;;;;;8.25;7.00;;;;;;;;5016389;28;45533;-79
2021/07/04 21:05:09;;;;;;;;;9.25;8.00;;;;;;;;5011158;28;46199;-80
2021/07/04 21:07:34;;;;;;;;;7.00;7.00;;;;;;;;5000358;28;46271;-80
2021/07/04 21:10:00;;;;;;;;;7.67;6.33;;;;;;;;5012771;28;45470;-80
2021/07/04 21:12:25;;;;;;;;;6.00;6.00;;;;;;;;5002640;28;45565;-79
2021/07/04 21:14:50;;;;;;;;;6.25;6.00;;;;;;;;5010343;28;46233;-80
2021/07/04 21:17:15;;;;;;;;;10.50;9.00;;;;;;;;5006710;28;45580;-80
2021/07/04 21:19:41;;;;;;;;;8.00;8.00;;;;;;;;5012979;28;45515;-80
2021/07/04 21:22:06;;;;;;;;;9.75;9.25;;;;;;;;4986442;28;47548;-79
2021/07/04 21:24:31;;;;;;;;;7.00;7.00;;;;;;;;5015255;28;45506;-79
2021/07/04 21:26:57;;;;;;;;;7.00;7.00;;;;;;;;5018322;28;45382;-80
2021/07/04 21:29:22;;;;;;;;;8.75;8.25;;;;;;;;5014693;28;45791;-79
2021/07/04 21:31:47;;;;;;;;;8.00;7.00;;;;;;;;5007683;28;45625;-79
2021/07/04 21:34:12;;;;;;;;;9.75;9.00;;;;;;;;5017672;28;45626;-80
2021/07/04 21:36:38;;;;;;;;;6.75;6.00;;;;;;;;5012315;28;45466;-80